createdAt,value
2018-09-21T00:02:27.987Z,25.78
2018-09-21T00:04:56.306Z,25.77
2018-09-21T00:07:24.661Z,25.77
2018-09-21T00:09:52.989Z,25.76
2018-09-21T00:12:21.398Z,25.75
2018-09-21T00:14:49.703Z,25.75
2018-09-21T00:17:18.117Z,25.74
2018-09-21T00:19:46.434Z,25.74
2018-09-21T00:22:14.727Z,25.74
2018-09-21T00:24:43.011Z,25.73
2018-09-21T00:27:11.439Z,25.72
2018-09-21T00:29:40.146Z,25.72
2018-09-21T00:32:08.443Z,25.71
2018-09-21T00:34:36.834Z,25.71
2018-09-21T00:37:05.151Z,25.70
2018-09-21T00:39:33.427Z,25.70
2018-09-21T00:42:01.707Z,25.71
2018-09-21T00:44:30.018Z,25.70
2018-09-21T00:46:58.330Z,25.68
2018-09-21T00:49:26.682Z,25.68
2018-09-21T00:51:54.954Z,25.67
2018-09-21T00:54:23.246Z,25.68
2018-09-21T00:56:51.630Z,25.68
2018-09-21T00:59:19.946Z,25.67
2018-09-21T01:01:48.230Z,25.66
2018-09-21T01:04:16.525Z,25.65
2018-09-21T01:06:44.845Z,25.65
2018-09-21T01:14:17.982Z,25.58
2018-09-21T01:16:46.274Z,25.57
2018-09-21T01:19:14.575Z,25.56
2018-09-21T01:21:42.878Z,25.56
2018-09-21T01:24:11.195Z,25.55
2018-09-21T01:29:52.058Z,25.57
2018-09-21T01:32:28.457Z,25.54
2018-09-21T01:35:00.957Z,25.56
2018-09-21T01:37:33.919Z,25.55
2018-09-21T01:40:10.299Z,25.55
2018-09-21T01:42:44.897Z,25.55
2018-09-21T01:45:20.448Z,25.54
2018-09-21T01:47:52.525Z,25.54
2018-09-21T01:56:19.899Z,25.52
2018-09-21T01:58:48.343Z,25.51
2018-09-21T02:01:16.798Z,25.50
2018-09-21T02:03:45.121Z,25.51
2018-09-21T02:06:13.388Z,25.50
2018-09-21T02:08:41.697Z,25.50
2018-09-21T02:11:10.081Z,25.51
2018-09-21T02:13:38.430Z,25.50
2018-09-21T02:16:06.761Z,25.50
2018-09-21T02:18:35.050Z,25.51
2018-09-21T02:21:03.431Z,25.50
2018-09-21T02:23:31.754Z,25.49
2018-09-21T02:26:00.398Z,25.49
2018-09-21T02:28:28.686Z,25.49
2018-09-21T02:30:56.962Z,25.50
2018-09-21T02:33:25.263Z,25.49
2018-09-21T02:35:53.534Z,25.47
2018-09-21T02:38:21.862Z,25.49
2018-09-21T02:40:50.122Z,25.48
2018-09-21T02:43:18.391Z,25.49
2018-09-21T02:45:46.651Z,25.47
2018-09-21T02:48:14.978Z,25.47
2018-09-21T02:50:43.270Z,25.48
2018-09-21T02:53:11.550Z,25.47
2018-09-21T02:55:39.886Z,25.47
2018-09-21T02:58:08.194Z,25.46
2018-09-21T03:00:36.616Z,25.47
2018-09-21T03:03:04.808Z,25.46
2018-09-21T03:05:33.250Z,25.45
2018-09-21T03:08:01.561Z,25.46
2018-09-21T03:10:29.880Z,25.45
2018-09-21T03:12:58.214Z,25.45
2018-09-21T03:15:26.527Z,25.39
2018-09-21T03:17:54.814Z,25.44
2018-09-21T03:20:23.359Z,25.44
2018-09-21T03:22:51.691Z,25.43
2018-09-21T03:25:20.062Z,25.43
2018-09-21T03:27:48.354Z,25.43
2018-09-21T03:30:16.647Z,25.42
2018-09-21T03:32:44.944Z,25.42
2018-09-21T03:35:13.532Z,25.42
2018-09-21T03:37:41.792Z,25.42
2018-09-21T03:40:10.111Z,25.42
2018-09-21T03:42:38.409Z,25.42
2018-09-21T03:45:07.047Z,25.41
2018-09-21T03:47:35.350Z,25.42
2018-09-21T03:50:03.712Z,25.42
2018-09-21T03:52:32.015Z,25.41
2018-09-21T03:55:00.346Z,25.41
2018-09-21T03:57:28.651Z,25.39
2018-09-21T03:59:57.647Z,25.39
2018-09-21T04:02:25.954Z,25.39
2018-09-21T04:04:54.251Z,25.41
2018-09-21T04:07:22.575Z,25.40
2018-09-21T04:09:50.934Z,25.37
2018-09-21T04:12:19.231Z,25.39
2018-09-21T04:14:47.522Z,25.39
2018-09-21T04:17:15.914Z,25.39
2018-09-21T04:19:44.226Z,25.38
2018-09-21T04:22:12.514Z,25.39
2018-09-21T04:24:40.843Z,25.38
2018-09-21T04:27:09.258Z,25.38
2018-09-21T04:29:37.591Z,25.40
2018-09-21T04:32:05.891Z,25.41
2018-09-21T04:34:34.199Z,25.40
2018-09-21T04:37:02.567Z,25.39
2018-09-21T04:39:31.303Z,25.40
2018-09-21T04:41:59.594Z,25.39
2018-09-21T04:44:27.895Z,25.40
2018-09-21T04:46:56.242Z,25.40
2018-09-21T04:49:24.650Z,25.40
2018-09-21T04:51:52.962Z,25.39
2018-09-21T04:54:21.244Z,25.40
2018-09-21T04:56:49.594Z,25.40
2018-09-21T04:59:17.891Z,25.39
2018-09-21T05:01:46.224Z,25.40
2018-09-21T05:04:14.582Z,25.40
2018-09-21T05:06:42.910Z,25.40
2018-09-21T05:09:11.477Z,25.41
2018-09-21T05:11:39.853Z,25.40
2018-09-21T05:14:08.220Z,25.41
2018-09-21T05:16:36.705Z,25.40
2018-09-21T05:19:05.047Z,25.40
2018-09-21T05:21:34.076Z,25.42
2018-09-21T05:24:02.379Z,25.42
2018-09-21T05:26:30.708Z,25.41
2018-09-21T05:28:58.990Z,25.41
2018-09-21T05:31:27.408Z,25.41
2018-09-21T05:33:55.703Z,25.41
2018-09-21T05:36:24.031Z,25.41
2018-09-21T05:38:52.319Z,25.41
2018-09-21T05:41:20.691Z,25.42
2018-09-21T05:43:49.186Z,25.42
2018-09-21T05:46:17.567Z,25.42
2018-09-21T05:48:45.902Z,25.43
2018-09-21T05:51:14.323Z,25.43
2018-09-21T05:53:42.650Z,25.43
2018-09-21T05:56:10.974Z,25.43
2018-09-21T05:58:39.291Z,25.42
2018-09-21T06:01:07.750Z,25.43
2018-09-21T06:03:36.058Z,25.43
2018-09-21T06:06:04.374Z,25.44
2018-09-21T06:08:32.659Z,25.42
2018-09-21T06:11:00.990Z,25.42
2018-09-21T06:13:29.305Z,25.42
2018-09-21T06:15:57.658Z,25.41
2018-09-21T06:18:25.920Z,25.42
2018-09-21T06:20:54.194Z,25.42
2018-09-21T06:23:22.458Z,25.42
2018-09-21T06:25:50.743Z,25.42
2018-09-21T06:28:19.038Z,25.42
2018-09-21T06:30:47.314Z,25.43
2018-09-21T06:33:15.570Z,25.43
2018-09-21T06:35:43.875Z,25.43
2018-09-21T06:38:12.172Z,25.42
2018-09-21T06:40:40.563Z,25.42
2018-09-21T06:43:08.828Z,25.41
2018-09-21T06:45:38.318Z,25.41
2018-09-21T06:48:06.626Z,25.43
2018-09-21T06:50:35.055Z,25.42
2018-09-21T06:53:03.377Z,25.42
2018-09-21T06:55:31.870Z,25.41
2018-09-21T06:58:00.173Z,25.42
2018-09-21T07:00:28.478Z,25.40
2018-09-21T07:02:56.838Z,25.40
2018-09-21T07:05:25.115Z,25.39
2018-09-21T07:07:53.462Z,25.38
2018-09-21T07:10:21.754Z,25.39
2018-09-21T07:12:50.082Z,25.37
2018-09-21T07:15:18.445Z,25.37
2018-09-21T07:17:46.742Z,25.38
2018-09-21T07:20:15.018Z,25.37
2018-09-21T07:22:44.050Z,25.40
2018-09-21T07:25:12.311Z,25.40
2018-09-21T07:27:40.610Z,25.42
2018-09-21T07:30:08.902Z,25.43
2018-09-21T07:32:37.431Z,25.43
2018-09-21T07:35:05.779Z,25.43
2018-09-21T07:37:34.243Z,25.43
2018-09-21T07:40:02.990Z,25.43
2018-09-21T07:42:31.335Z,25.43
2018-09-21T07:44:59.603Z,25.44
2018-09-21T07:47:27.898Z,25.46
2018-09-21T07:49:56.195Z,25.47
2018-09-21T07:52:24.499Z,25.46
2018-09-21T07:54:52.783Z,25.47
2018-09-21T07:57:21.399Z,25.48
2018-09-21T07:59:49.702Z,25.47
2018-09-21T08:02:17.990Z,25.47
2018-09-21T08:09:49.806Z,25.43
2018-09-21T08:12:18.197Z,25.42
2018-09-21T08:14:46.578Z,25.42
2018-09-21T08:17:14.866Z,25.42
2018-09-21T08:19:43.196Z,25.43
2018-09-21T08:22:11.618Z,25.43
2018-09-21T08:24:39.935Z,25.44
2018-09-21T08:27:10.086Z,25.43
2018-09-21T08:29:38.386Z,25.47
2018-09-21T08:32:06.927Z,25.49
2018-09-21T08:34:35.402Z,25.50
2018-09-21T08:37:03.915Z,25.49
2018-09-21T08:39:32.402Z,25.47
2018-09-21T08:42:00.887Z,25.48
2018-09-21T08:44:29.231Z,25.48
2018-09-21T08:46:57.729Z,25.48
2018-09-21T08:49:26.503Z,25.47
2018-09-21T08:51:54.978Z,25.47
2018-09-21T08:54:23.377Z,25.48
2018-09-21T08:56:51.777Z,25.48
2018-09-21T08:59:21.259Z,25.48
2018-09-21T09:01:49.676Z,25.49
2018-09-21T09:04:18.082Z,25.49
2018-09-21T09:06:46.468Z,25.49
2018-09-21T09:09:14.891Z,25.50
2018-09-21T09:11:43.515Z,25.51
2018-09-21T09:14:11.882Z,25.50
2018-09-21T09:16:40.203Z,25.50
2018-09-21T09:19:08.762Z,25.51
2018-09-21T09:21:37.075Z,25.50
2018-09-21T09:24:05.650Z,25.50
2018-09-21T09:26:34.174Z,25.52
2018-09-21T09:29:02.472Z,25.52
2018-09-21T09:31:30.822Z,25.53
2018-09-21T09:33:59.210Z,25.54
2018-09-21T09:36:27.578Z,25.54
2018-09-21T09:38:55.968Z,25.54
2018-09-21T09:41:24.955Z,25.54
2018-09-21T09:43:53.646Z,25.54
2018-09-21T09:46:21.912Z,25.54
2018-09-21T09:48:50.408Z,25.56
2018-09-21T09:51:18.627Z,25.55
2018-09-21T09:53:46.916Z,25.54
2018-09-21T09:56:15.227Z,25.53
2018-09-21T09:58:43.628Z,25.54
2018-09-21T10:01:11.894Z,25.54
2018-09-21T10:03:40.305Z,25.53
2018-09-21T10:06:08.619Z,25.53
2018-09-21T10:08:37.019Z,25.53
2018-09-21T10:11:05.351Z,25.52
2018-09-21T10:13:33.651Z,25.51
2018-09-21T10:16:01.966Z,25.51
2018-09-21T10:18:30.254Z,25.51
2018-09-21T10:20:58.631Z,25.49
2018-09-21T10:23:26.923Z,25.49
2018-09-21T10:25:55.217Z,25.49
2018-09-21T10:28:23.676Z,25.48
2018-09-21T10:30:51.847Z,25.47
2018-09-21T10:33:20.293Z,25.47
2018-09-21T10:35:48.518Z,25.45
2018-09-21T10:38:16.875Z,25.45
2018-09-21T10:40:45.267Z,25.45
2018-09-21T10:43:13.654Z,25.44
2018-09-21T10:45:42.024Z,25.44
2018-09-21T10:48:10.302Z,25.43
2018-09-21T10:50:38.605Z,25.42
2018-09-21T10:53:07.080Z,25.41
2018-09-21T10:55:35.391Z,25.39
2018-09-21T10:58:03.757Z,25.34
2018-09-21T11:00:32.177Z,25.33
2018-09-21T11:03:00.855Z,25.32
2018-09-21T11:05:29.183Z,25.32
2018-09-21T11:07:57.628Z,25.32
2018-09-21T11:10:25.949Z,25.30
2018-09-21T11:12:54.302Z,25.30
2018-09-21T11:15:22.566Z,25.29
2018-09-21T11:17:50.870Z,25.29
2018-09-21T11:20:19.207Z,25.29
2018-09-21T11:22:47.458Z,25.28
2018-09-21T11:25:15.844Z,25.27
2018-09-21T11:27:44.094Z,25.28
2018-09-21T11:30:12.370Z,25.27
2018-09-21T11:32:40.691Z,25.29
2018-09-21T11:35:09.027Z,25.29
2018-09-21T11:37:37.296Z,25.29
2018-09-21T11:40:05.607Z,25.28
2018-09-21T11:47:38.832Z,25.19
2018-09-21T11:50:07.140Z,25.18
2018-09-21T11:52:35.982Z,25.16
2018-09-21T11:55:05.265Z,25.16
2018-09-21T11:57:33.566Z,25.15
2018-09-21T12:00:01.948Z,25.16
2018-09-21T12:02:30.242Z,25.16
2018-09-21T12:04:58.634Z,25.15
2018-09-21T12:07:26.946Z,25.15
2018-09-21T12:09:55.255Z,25.15
2018-09-21T12:12:23.550Z,25.14
2018-09-21T12:14:51.903Z,25.13
2018-09-21T12:17:20.241Z,25.13
2018-09-21T12:19:48.674Z,25.14
2018-09-21T12:22:17.267Z,25.13
2018-09-21T12:24:45.567Z,25.12
2018-09-21T12:27:13.935Z,25.11
2018-09-21T12:29:42.250Z,25.11
2018-09-21T12:32:10.531Z,25.11
2018-09-21T12:34:38.979Z,25.09
2018-09-21T12:37:08.316Z,25.09
2018-09-21T12:39:36.642Z,25.09
2018-09-21T12:42:04.953Z,25.09
2018-09-21T12:44:33.287Z,25.04
2018-09-21T12:47:01.603Z,25.10
2018-09-21T12:49:30.535Z,25.08
2018-09-21T12:51:58.820Z,25.07
2018-09-21T12:54:27.124Z,25.08
2018-09-21T12:56:55.433Z,25.06
2018-09-21T12:59:23.759Z,25.07
2018-09-21T13:01:52.051Z,25.07
2018-09-21T13:04:20.348Z,25.06
2018-09-21T13:06:48.707Z,25.06
2018-09-21T13:09:17.027Z,25.06
2018-09-21T13:11:45.427Z,25.05
2018-09-21T13:14:13.757Z,25.05
2018-09-21T13:16:42.019Z,25.06
2018-09-21T13:19:11.035Z,25.06
2018-09-21T13:21:39.330Z,25.05
2018-09-21T13:24:07.736Z,25.05
2018-09-21T13:26:36.067Z,25.04
2018-09-21T13:29:04.367Z,25.04
2018-09-21T13:31:32.679Z,25.04
2018-09-21T13:34:00.957Z,25.04
2018-09-21T13:36:29.293Z,25.04
2018-09-21T13:38:57.623Z,25.03
2018-09-21T13:41:25.950Z,25.04
2018-09-21T13:43:54.345Z,25.03
2018-09-21T13:46:22.665Z,25.03
2018-09-21T13:48:51.000Z,25.01
2018-09-21T13:51:19.323Z,25.02
2018-09-21T13:53:47.609Z,25.03
2018-09-21T13:56:15.909Z,25.02
2018-09-21T13:58:44.472Z,25.02
2018-09-21T14:01:12.807Z,25.01
2018-09-21T14:03:41.154Z,25.01
2018-09-21T14:06:09.454Z,25.02
2018-09-21T14:08:37.758Z,25.02
2018-09-21T14:11:06.235Z,25.01
2018-09-21T14:13:34.553Z,25.01
2018-09-21T14:16:03.026Z,25.01
2018-09-21T14:18:31.387Z,25.00
2018-09-21T14:20:59.728Z,25.01
2018-09-21T14:23:28.163Z,25.01
2018-09-21T14:25:56.486Z,25.01
2018-09-21T14:28:24.799Z,25.00
2018-09-21T14:30:53.263Z,25.00
2018-09-21T14:33:21.626Z,25.02
2018-09-21T14:35:49.997Z,25.02
2018-09-21T14:38:18.790Z,25.01
2018-09-21T14:40:47.107Z,25.02
2018-09-21T14:43:15.411Z,25.01
2018-09-21T14:45:43.730Z,25.02
2018-09-21T14:48:12.027Z,25.01
2018-09-21T14:50:40.405Z,25.02
2018-09-21T14:53:08.755Z,25.02
2018-09-21T14:55:37.075Z,25.01
2018-09-21T14:58:05.370Z,25.02
2018-09-21T15:00:33.808Z,25.02
2018-09-21T15:03:02.139Z,25.02
2018-09-21T15:05:31.110Z,25.03
2018-09-21T15:07:59.431Z,25.04
2018-09-21T15:10:27.747Z,25.04
2018-09-21T15:12:56.063Z,25.04
2018-09-21T15:15:24.412Z,25.05
2018-09-21T15:17:52.735Z,25.05
2018-09-21T15:20:21.055Z,25.06
2018-09-21T15:22:49.362Z,25.05
2018-09-21T15:25:17.744Z,25.05
2018-09-21T15:27:46.038Z,25.06
2018-09-21T15:30:14.410Z,25.07
2018-09-21T15:32:42.744Z,25.08
2018-09-21T15:35:11.048Z,25.07
2018-09-21T15:37:39.519Z,25.09
2018-09-21T15:40:07.868Z,25.07
2018-09-21T15:42:36.202Z,25.08
2018-09-21T15:45:04.582Z,25.10
2018-09-21T15:47:32.896Z,25.08
2018-09-21T15:50:01.262Z,25.08
2018-09-21T15:52:29.658Z,25.09
2018-09-21T15:54:57.951Z,25.08
2018-09-21T15:57:26.279Z,25.10
2018-09-21T15:59:54.755Z,25.09
2018-09-21T16:02:23.148Z,25.08
2018-09-21T16:04:51.444Z,25.10
2018-09-21T16:07:19.770Z,25.09
2018-09-21T16:09:48.126Z,25.10
2018-09-21T16:12:16.470Z,25.09
2018-09-21T16:14:44.794Z,25.09
2018-09-21T16:17:13.257Z,25.09
2018-09-21T16:19:41.642Z,25.08
2018-09-21T16:22:09.966Z,25.07
2018-09-21T16:24:38.262Z,25.07
2018-09-21T16:27:06.250Z,25.08
2018-09-21T16:29:34.587Z,25.08
2018-09-21T16:32:03.050Z,25.06
2018-09-21T16:34:31.406Z,25.05
2018-09-21T16:36:59.842Z,25.06
2018-09-21T16:39:28.364Z,25.05
2018-09-21T16:41:56.707Z,25.05
2018-09-21T16:44:25.148Z,25.05
2018-09-21T16:46:53.572Z,25.05
2018-09-21T16:49:21.976Z,25.04
2018-09-21T16:51:50.489Z,25.04
2018-09-21T16:54:18.925Z,25.04
2018-09-21T16:56:47.327Z,25.02
2018-09-21T16:59:15.737Z,25.04
2018-09-21T17:01:44.121Z,25.02
2018-09-21T17:04:12.483Z,25.03
2018-09-21T17:06:40.875Z,25.03
2018-09-21T17:09:11.322Z,25.02
2018-09-21T17:11:40.011Z,25.02
2018-09-21T17:14:08.331Z,25.02
2018-09-21T17:16:36.614Z,25.00
2018-09-21T17:19:04.924Z,25.00
2018-09-21T17:21:33.288Z,25.00
2018-09-21T17:24:01.647Z,25.00
2018-09-21T17:26:29.982Z,24.97
2018-09-21T17:28:58.347Z,24.98
2018-09-21T17:31:26.676Z,24.98
2018-09-21T17:33:55.041Z,24.96
2018-09-21T17:36:23.357Z,24.96
2018-09-21T17:38:51.715Z,24.94
2018-09-21T17:41:20.036Z,24.93
2018-09-21T17:43:48.712Z,24.91
2018-09-21T17:46:17.038Z,24.89
2018-09-21T17:48:45.360Z,24.88
2018-09-21T17:51:13.640Z,24.86
2018-09-21T17:53:41.973Z,24.84
2018-09-21T17:56:10.332Z,24.82
2018-09-21T17:58:38.667Z,24.82
2018-09-21T18:01:07.055Z,24.80
2018-09-21T18:03:35.366Z,24.80
2018-09-21T18:06:03.704Z,24.79
2018-09-21T18:08:32.185Z,24.77
2018-09-21T18:11:00.507Z,24.78
2018-09-21T18:13:28.801Z,24.77
2018-09-21T18:15:57.133Z,24.77
2018-09-21T18:18:25.475Z,24.74
2018-09-21T18:20:53.776Z,24.75
2018-09-21T18:23:22.090Z,24.74
2018-09-21T18:25:50.534Z,24.73
2018-09-21T18:28:19.002Z,24.73
2018-09-21T18:30:47.324Z,24.71
2018-09-21T18:33:15.723Z,24.70
2018-09-21T18:35:44.163Z,24.70
2018-09-21T18:38:12.541Z,24.70
2018-09-21T18:40:40.847Z,24.71
2018-09-21T18:43:09.171Z,24.71
2018-09-21T18:45:37.622Z,24.72
2018-09-21T18:48:06.267Z,24.72
2018-09-21T18:50:34.735Z,24.73
2018-09-21T18:53:03.612Z,24.72
2018-09-21T18:55:32.310Z,24.72
2018-09-21T18:58:00.667Z,24.72
2018-09-21T19:00:28.994Z,24.71
2018-09-21T19:02:57.361Z,24.71
2018-09-21T19:05:25.706Z,24.70
2018-09-21T19:07:54.146Z,24.69
2018-09-21T19:10:22.458Z,24.69
2018-09-21T19:12:50.795Z,24.68
2018-09-21T19:15:19.080Z,24.68
2018-09-21T19:17:47.466Z,24.68
2018-09-21T19:20:15.778Z,24.67
2018-09-21T19:22:44.063Z,24.68
2018-09-21T19:25:12.348Z,24.66
2018-09-21T19:27:40.654Z,24.67
2018-09-21T19:30:08.971Z,24.67
2018-09-21T19:32:37.282Z,24.67
2018-09-21T19:35:05.772Z,24.66
2018-09-21T19:37:34.070Z,24.67
2018-09-21T19:40:02.375Z,24.65
2018-09-21T19:42:30.709Z,24.65
2018-09-21T19:44:59.029Z,24.65
2018-09-21T19:47:28.016Z,24.65
2018-09-21T19:49:56.358Z,24.65
2018-09-21T19:52:24.634Z,24.64
2018-09-21T19:54:53.139Z,24.65
2018-09-21T19:57:21.339Z,24.65
2018-09-21T19:59:49.646Z,24.64
2018-09-21T20:02:17.933Z,24.64
2018-09-21T20:04:46.306Z,24.62
2018-09-21T20:07:14.635Z,24.61
2018-09-21T20:09:42.928Z,24.62
2018-09-21T20:12:11.245Z,24.61
2018-09-21T20:14:39.567Z,24.60
2018-09-21T20:17:07.874Z,24.59
2018-09-21T20:19:36.170Z,24.58
2018-09-21T20:22:04.546Z,24.58
2018-09-21T20:24:32.839Z,24.59
2018-09-21T20:27:01.172Z,24.58
2018-09-21T20:29:29.543Z,24.58
2018-09-21T20:32:03.255Z,24.77
2018-09-21T20:34:31.570Z,24.73
2018-09-21T20:36:59.952Z,24.66
2018-09-21T20:39:28.178Z,24.62
2018-09-21T20:41:56.502Z,24.59
2018-09-21T20:44:24.894Z,24.57
2018-09-21T20:46:53.200Z,24.57
2018-09-21T20:49:21.520Z,24.56
2018-09-21T20:51:49.932Z,24.53
2018-09-21T20:54:19.054Z,24.53
2018-09-21T20:56:48.458Z,24.51
2018-09-21T20:59:16.831Z,24.51
2018-09-21T21:01:45.090Z,24.51
2018-09-21T21:04:13.475Z,24.50
2018-09-21T21:06:41.730Z,24.48
2018-09-21T21:09:10.791Z,24.49
2018-09-21T21:11:39.113Z,24.48
2018-09-21T21:14:07.420Z,24.48
2018-09-21T21:16:35.669Z,24.47
2018-09-21T21:19:04.266Z,24.47
2018-09-21T21:21:32.518Z,24.45
2018-09-21T21:24:00.808Z,24.45
2018-09-21T21:26:29.082Z,24.44
2018-09-21T21:28:57.359Z,24.43
2018-09-21T21:31:25.722Z,24.44
2018-09-21T21:33:53.974Z,24.42
2018-09-21T21:36:22.245Z,24.42
2018-09-21T21:38:50.543Z,24.42
2018-09-21T21:41:19.029Z,24.40
2018-09-21T21:43:47.388Z,24.40
2018-09-21T21:46:15.688Z,24.39
2018-09-21T21:48:43.938Z,24.38
2018-09-21T21:51:12.226Z,24.38
2018-09-21T21:53:40.477Z,24.38
2018-09-21T21:56:08.847Z,24.36
2018-09-21T21:58:37.114Z,24.35
2018-09-21T22:01:10.577Z,24.35
2018-09-21T22:03:38.862Z,24.28
2018-09-21T22:06:07.234Z,24.33
2018-09-21T22:08:35.582Z,24.33
2018-09-21T22:11:08.038Z,24.32
2018-09-21T22:13:41.670Z,24.31
2018-09-21T22:16:09.990Z,24.30
2018-09-21T22:18:38.318Z,24.30
2018-09-21T22:21:06.853Z,24.28
2018-09-21T22:23:35.210Z,24.28
2018-09-21T22:26:03.523Z,24.26
2018-09-21T22:28:31.790Z,24.27
2018-09-21T22:31:00.114Z,24.25
2018-09-21T22:33:28.398Z,24.25
2018-09-21T22:35:56.745Z,24.26
2018-09-21T22:38:25.032Z,24.24
2018-09-21T22:40:53.478Z,24.24
2018-09-21T22:43:21.853Z,24.23
2018-09-21T22:45:50.147Z,24.22
2018-09-21T22:48:18.442Z,24.20
2018-09-21T22:50:46.743Z,24.20
2018-09-21T22:53:15.050Z,24.20
2018-09-21T22:55:43.407Z,24.19
2018-09-21T22:58:11.707Z,24.19
2018-09-21T23:00:39.985Z,24.18
2018-09-21T23:03:08.262Z,24.16
2018-09-21T23:05:36.627Z,24.15
2018-09-21T23:08:04.966Z,24.15
2018-09-21T23:10:33.250Z,24.15
2018-09-21T23:13:01.508Z,24.15
2018-09-21T23:15:29.895Z,24.13
2018-09-21T23:17:58.158Z,24.14
2018-09-21T23:20:26.409Z,24.13
2018-09-21T23:22:54.662Z,24.12
2018-09-21T23:25:22.982Z,24.11
2018-09-21T23:27:51.257Z,24.10
2018-09-21T23:30:19.527Z,24.11
2018-09-21T23:32:47.789Z,24.09
2018-09-21T23:35:16.039Z,24.09
2018-09-21T23:37:44.402Z,24.08
2018-09-21T23:40:12.686Z,24.08
2018-09-21T23:42:40.961Z,24.07
2018-09-21T23:45:09.254Z,24.06
2018-09-21T23:47:37.521Z,24.06
2018-09-21T23:50:05.786Z,24.04
2018-09-21T23:52:34.146Z,24.04
2018-09-21T23:55:03.105Z,24.03
2018-09-21T23:57:31.365Z,24.03
2018-09-21T23:59:59.614Z,24.03
